Terminal Aerodrome Forecast
Issued by NWS

Home | Current Version | Previous Version | Graphics & Text | Print | Product List | Glossary On
Versions: 1 2 3 4 5 6 7 8 9 10 11 12 13 14 15 16 17 18 19 20 21 22 23 24 25 26 27 28
000
FTUS43 KABR 021213 AAA
TAFMBG
TAF AMD
KMBG 021213Z 0212/0312 VRB06KT P6SM -SN OVC029
     FM021600 VRB03KT P6SM OVC020
     FM022100 22004KT P6SM OVC035
     FM022200 21004KT P6SM OVC025
     FM030000 20005KT P6SM OVC015
     FM030300 18006KT P6SM BKN035
     FM030600 20006KT P6SM BKN025
     FM031000 18006KT P6SM SCT020=

USA.gov is the U.S. government's official web portal to all federal, state and local government web resources and services.